UHPP Airport Information

Runway Information
Runway 12 Length 735 ft width 50 ft Elevation N/A Threshold N/A Heading 118
Runway 30 Length 735 ft Width 50 ft Elevation ft Threshold N/A Heading 298
Runway 16R Length 8235 ft width 197 ft Elevation N/A Threshold N/A Heading 157
Runway 34L Length 8235 ft Width 197 ft Elevation ft Threshold N/A Heading 337
Runway 16L Length 11155 ft width 197 ft Elevation 112 ft Threshold N/A Heading 157
Runway 34R Length 11155 ft Width 197 ft Elevation 131 ft Threshold N/A Heading 337
Airport Frequencies
Type ARSA Name PETROPAVLO Frequency 119.4 MHZ
Type TWR Name PETROPAVLO Frequency 118.1 MHZ
Airport Navaids
Type NDB Name Petropavlovsk-Kamchatsky Frequency 535 KHZ
Airport Weather Information & NOTAM
ADDS - METARS form results

(0316 UTC 12 August 2022)
Data provider http://aviationweather.gov/metar/data/
 
METAR text: UHPP 120300Z 18004MPS 140V200 9999 BKN007 15/15 Q1011 R16R/CLRD70 NOSIG RMK MT OBSC QFE755/1007
Conditions at: UHPP (PETROPAVLOVSK-KA, RU) observed 0300 UTC 12 August 2022
Temperature: 15.0°C (59°F)
Dewpoint: 15.0°C (59°F) [RH = 100%]
Pressure (altimeter): 29.85 inches Hg (1011.0 mb)
Winds: from the S (180 degrees) at 9 MPH (8 knots; 4.1 m/s)
Visibility: 6 or more miles (10+ km)
Ceiling: 700 feet AGL
Clouds: broken clouds at 700 feet AGL
Weather: no significant weather observed at this time

METAR text: UHPP 120230Z 20004MPS 9999 BKN007 15/15 Q1012 R16R/CLRD70 NOSIG RMK MT OBSC QFE756/1008
Conditions at: UHPP (PETROPAVLOVSK-KA, RU) observed 0230 UTC 12 August 2022
Temperature: 15.0°C (59°F)
Dewpoint: 15.0°C (59°F) [RH = 100%]
Pressure (altimeter): 29.88 inches Hg (1012.0 mb)
Winds: from the SSW (200 degrees) at 9 MPH (8 knots; 4.1 m/s)
Visibility: 6 or more miles (10+ km)
Ceiling: 700 feet AGL
Clouds: broken clouds at 700 feet AGL
Weather: no significant weather observed at this time

Forecast for: UHPP (PETROPAVLOVSK-KA, RU)
Text: TAF UHPP 120136Z 1203/1309 16003G08MPS 9999 BKN010
Forecast period: 0300 UTC 12 August 2022 to 0900 UTC 13 August 2022
Forecast type: FROM: standard forecast or significant change
Winds: from the SSE (160 degrees) at 7 MPH (6 knots; 3.1 m/s)
gusting to 18 MPH (16 knots; 8.2 m/s)
Visibility: 6 or more miles (10+ km)
Ceiling: 1000 feet AGL
Clouds: broken clouds at 1000 feet AGL
Weather: no significant weather forecast for this period
Text: TEMPO 1209/1222 0700 -SHRA FG VV001
Forecast period: 0900 to 2200 UTC 12 August 2022
Forecast type: TEMPORARY: The following changes expected for less than half the time period
Visibility: 0.43 miles (0.69 km)
Ceiling: indefinite ceiling with vertical visibility of 100 feet AGL
Clouds: obscured sky
Weather: -SHRA FG  (light rain showers, fog)